-2.99C
облачно с прояснениями
облачно с прояснениями
Дата и времяТемператураДавление, мм рт.ст.Влажность, %Осадки
МинимумМаксимум
14.04.2024 20:00-7.38C-4.45C75472облачно с прояснениями
14.04.2024 23:00-10.76C-8.17C75684облачно с прояснениями
15.04.2024 02:00-13.22C-13.22C75995переменная облачность
15.04.2024 05:00-15.48C-15.48C76194переменная облачность
15.04.2024 08:00-12.77C-12.77C76284небольшая облачность
15.04.2024 11:00-8.73C-8.73C76271небольшая облачность
15.04.2024 14:00-6.63C-6.63C76464ясно
15.04.2024 17:00-6.76C-6.76C76578небольшая облачность
15.04.2024 20:00-11.79C-11.79C76590переменная облачность
15.04.2024 23:00-12.78C-12.78C76691небольшая облачность
16.04.2024 02:00-11.31C-11.31C76690небольшая облачность
16.04.2024 05:00-9.75C-9.75C76789небольшая облачность
16.04.2024 08:00-3.68C-3.68C76684облачно с прояснениями
16.04.2024 11:000.29C0.29C76684облачно с прояснениями
16.04.2024 14:001.66C1.66C76586переменная облачность
16.04.2024 17:001.91C1.91C76580небольшая облачность
16.04.2024 20:00-1.54C-1.54C76486небольшая облачность
16.04.2024 23:00-1.85C-1.85C76387ясно
17.04.2024 02:00-2.29C-2.29C76290небольшая облачность
17.04.2024 05:00-1.41C-1.41C76088облачно с прояснениями
17.04.2024 08:001.04C1.04C75785пасмурно
17.04.2024 11:002.26C2.26C75689небольшой дождь
17.04.2024 14:001.6C1.6C75698небольшой дождь
17.04.2024 17:001.51C1.51C75699пасмурно
17.04.2024 20:001.16C1.16C75699пасмурно
17.04.2024 23:001.38C1.38C75699пасмурно
18.04.2024 02:001.22C1.22C75699пасмурно
18.04.2024 05:001.14C1.14C75494пасмурно
18.04.2024 08:001.86C1.86C75194пасмурно
18.04.2024 11:003.3C3.3C74796небольшой дождь
18.04.2024 14:004.83C4.83C74598небольшой дождь
18.04.2024 17:006.07C6.07C74691небольшой дождь
18.04.2024 20:004.84C4.84C74782небольшой дождь
18.04.2024 23:001.74C1.74C74996небольшой дождь
19.04.2024 02:001.27C1.27C75397пасмурно
19.04.2024 05:000.98C0.98C75693небольшой снег
19.04.2024 08:001.06C1.06C75982пасмурно
19.04.2024 11:001.78C1.78C76172облачно с прояснениями
19.04.2024 14:003.2C3.2C76372пасмурно
19.04.2024 17:002.53C2.53C76571пасмурно
Дата и время наблюдения: 14.04.2024 18:07:55